sensor_id;sensor_type;location;lat;lon;timestamp;temperature;humidity
20422;DHT22;10370;53.102;18.034;2024-02-16T00:01:21;9.30;99.90
20422;DHT22;10370;53.102;18.034;2024-02-16T00:06:44;9.30;99.90
20422;DHT22;10370;53.102;18.034;2024-02-16T00:12:07;9.30;99.90
20422;DHT22;10370;53.102;18.034;2024-02-16T00:17:30;9.30;99.90
20422;DHT22;10370;53.102;18.034;2024-02-16T00:23:00;9.30;99.90
20422;DHT22;10370;53.102;18.034;2024-02-16T00:28:22;9.30;99.90
20422;DHT22;10370;53.102;18.034;2024-02-16T00:33:45;9.30;99.90
20422;DHT22;10370;53.102;18.034;2024-02-16T00:39:26;9.30;99.90
20422;DHT22;10370;53.102;18.034;2024-02-16T00:44:49;9.20;99.90
20422;DHT22;10370;53.102;18.034;2024-02-16T00:50:44;9.20;99.90
20422;DHT22;10370;53.102;18.034;2024-02-16T00:56:59;9.20;99.90
20422;DHT22;10370;53.102;18.034;2024-02-16T01:02:25;9.20;99.90
20422;DHT22;10370;53.102;18.034;2024-02-16T01:07:50;9.20;99.90
20422;DHT22;10370;53.102;18.034;2024-02-16T01:19:58;9.20;99.90
20422;DHT22;10370;53.102;18.034;2024-02-16T01:25:21;9.20;99.90
20422;DHT22;10370;53.102;18.034;2024-02-16T01:30:43;9.20;99.90
20422;DHT22;10370;53.102;18.034;2024-02-16T01:36:06;9.20;99.90
20422;DHT22;10370;53.102;18.034;2024-02-16T01:41:29;9.20;99.90
20422;DHT22;10370;53.102;18.034;2024-02-16T01:46:51;9.20;99.90
20422;DHT22;10370;53.102;18.034;2024-02-16T01:52:14;9.20;99.90
20422;DHT22;10370;53.102;18.034;2024-02-16T01:57:43;9.20;99.90
20422;DHT22;10370;53.102;18.034;2024-02-16T02:03:05;9.20;99.90
20422;DHT22;10370;53.102;18.034;2024-02-16T02:08:28;9.20;99.90
20422;DHT22;10370;53.102;18.034;2024-02-16T02:14:10;9.20;99.90
20422;DHT22;10370;53.102;18.034;2024-02-16T02:19:52;9.20;99.90
20422;DHT22;10370;53.102;18.034;2024-02-16T02:25:15;9.10;99.90
20422;DHT22;10370;53.102;18.034;2024-02-16T02:30:38;9.20;99.90
20422;DHT22;10370;53.102;18.034;2024-02-16T02:36:01;9.20;99.90
20422;DHT22;10370;53.102;18.034;2024-02-16T02:41:23;9.10;99.90
20422;DHT22;10370;53.102;18.034;2024-02-16T02:46:46;9.10;99.90
20422;DHT22;10370;53.102;18.034;2024-02-16T02:52:09;9.10;99.90
20422;DHT22;10370;53.102;18.034;2024-02-16T02:57:31;9.10;99.90
20422;DHT22;10370;53.102;18.034;2024-02-16T03:02:54;9.10;99.90
20422;DHT22;10370;53.102;18.034;2024-02-16T03:08:17;9.10;99.90
20422;DHT22;10370;53.102;18.034;2024-02-16T03:15:06;9.10;99.90
20422;DHT22;10370;53.102;18.034;2024-02-16T03:27:45;9.10;99.90
20422;DHT22;10370;53.102;18.034;2024-02-16T03:33:08;9.10;99.90
20422;DHT22;10370;53.102;18.034;2024-02-16T03:38:31;9.10;99.90
20422;DHT22;10370;53.102;18.034;2024-02-16T03:43:53;9.00;99.90
20422;DHT22;10370;53.102;18.034;2024-02-16T03:49:16;9.00;99.90
20422;DHT22;10370;53.102;18.034;2024-02-16T03:54:39;9.00;99.90
20422;DHT22;10370;53.102;18.034;2024-02-16T04:00:23;9.00;99.90
20422;DHT22;10370;53.102;18.034;2024-02-16T04:05:46;9.00;99.90
20422;DHT22;10370;53.102;18.034;2024-02-16T04:11:11;9.00;99.90
20422;DHT22;10370;53.102;18.034;2024-02-16T04:16:50;9.00;99.90
20422;DHT22;10370;53.102;18.034;2024-02-16T04:22:13;9.00;99.90
20422;DHT22;10370;53.102;18.034;2024-02-16T04:27:51;8.90;99.90
20422;DHT22;10370;53.102;18.034;2024-02-16T04:33:13;8.90;99.90
20422;DHT22;10370;53.102;18.034;2024-02-16T04:38:36;8.90;99.90
20422;DHT22;10370;53.102;18.034;2024-02-16T04:43:59;8.80;99.90
20422;DHT22;10370;53.102;18.034;2024-02-16T04:49:22;8.80;99.90
20422;DHT22;10370;53.102;18.034;2024-02-16T04:54:47;8.80;99.90
20422;DHT22;10370;53.102;18.034;2024-02-16T05:00:11;8.70;99.90
20422;DHT22;10370;53.102;18.034;2024-02-16T05:05:34;8.70;99.90
20422;DHT22;10370;53.102;18.034;2024-02-16T05:10:57;8.70;99.90
20422;DHT22;10370;53.102;18.034;2024-02-16T05:16:20;8.60;99.90
20422;DHT22;10370;53.102;18.034;2024-02-16T05:21:42;8.60;99.90
20422;DHT22;10370;53.102;18.034;2024-02-16T05:27:06;8.50;99.90
20422;DHT22;10370;53.102;18.034;2024-02-16T05:32:29;8.50;99.90
20422;DHT22;10370;53.102;18.034;2024-02-16T05:37:55;8.50;99.90
20422;DHT22;10370;53.102;18.034;2024-02-16T05:43:18;8.50;99.90
20422;DHT22;10370;53.102;18.034;2024-02-16T05:48:41;8.40;99.90
20422;DHT22;10370;53.102;18.034;2024-02-16T05:54:03;8.40;99.90
20422;DHT22;10370;53.102;18.034;2024-02-16T05:59:26;8.30;99.90
20422;DHT22;10370;53.102;18.034;2024-02-16T06:04:49;8.30;99.90
20422;DHT22;10370;53.102;18.034;2024-02-16T06:10:12;8.30;99.90
20422;DHT22;10370;53.102;18.034;2024-02-16T06:15:35;8.30;99.90
20422;DHT22;10370;53.102;18.034;2024-02-16T06:20:59;8.30;99.90
20422;DHT22;10370;53.102;18.034;2024-02-16T06:26:22;8.30;99.90
20422;DHT22;10370;53.102;18.034;2024-02-16T06:31:48;8.30;99.90
20422;DHT22;10370;53.102;18.034;2024-02-16T06:37:12;8.30;99.90
20422;DHT22;10370;53.102;18.034;2024-02-16T06:42:35;8.30;99.90
20422;DHT22;10370;53.102;18.034;2024-02-16T06:47:58;8.20;99.90
20422;DHT22;10370;53.102;18.034;2024-02-16T06:53:24;8.10;99.90
20422;DHT22;10370;53.102;18.034;2024-02-16T07:05:28;8.00;99.90
20422;DHT22;10370;53.102;18.034;2024-02-16T07:10:55;8.10;99.90
20422;DHT22;10370;53.102;18.034;2024-02-16T07:16:18;8.10;99.90
20422;DHT22;10370;53.102;18.034;2024-02-16T07:21:44;8.20;99.90
20422;DHT22;10370;53.102;18.034;2024-02-16T07:27:07;8.20;99.90
20422;DHT22;10370;53.102;18.034;2024-02-16T07:38:18;8.40;99.90
20422;DHT22;10370;53.102;18.034;2024-02-16T07:43:41;8.40;99.90
20422;DHT22;10370;53.102;18.034;2024-02-16T07:49:03;8.50;99.90
20422;DHT22;10370;53.102;18.034;2024-02-16T07:54:27;8.70;99.90
20422;DHT22;10370;53.102;18.034;2024-02-16T07:59:50;8.80;99.90
20422;DHT22;10370;53.102;18.034;2024-02-16T08:05:13;8.80;99.90
20422;DHT22;10370;53.102;18.034;2024-02-16T08:10:39;9.00;99.90
20422;DHT22;10370;53.102;18.034;2024-02-16T08:16:02;9.00;99.90
20422;DHT22;10370;53.102;18.034;2024-02-16T08:21:29;9.10;99.90
20422;DHT22;10370;53.102;18.034;2024-02-16T08:26:52;9.20;99.90
20422;DHT22;10370;53.102;18.034;2024-02-16T08:32:14;9.20;99.90
20422;DHT22;10370;53.102;18.034;2024-02-16T08:37:39;9.30;99.90
20422;DHT22;10370;53.102;18.034;2024-02-16T08:43:01;9.40;99.90
20422;DHT22;10370;53.102;18.034;2024-02-16T08:48:25;9.50;99.90
20422;DHT22;10370;53.102;18.034;2024-02-16T08:53:48;9.60;99.90
20422;DHT22;10370;53.102;18.034;2024-02-16T08:59:11;9.70;99.90
20422;DHT22;10370;53.102;18.034;2024-02-16T09:04:34;9.80;99.90
20422;DHT22;10370;53.102;18.034;2024-02-16T09:09:56;9.90;99.90
20422;DHT22;10370;53.102;18.034;2024-02-16T09:15:19;9.90;99.90
20422;DHT22;10370;53.102;18.034;2024-02-16T09:20:42;10.10;99.90
20422;DHT22;10370;53.102;18.034;2024-02-16T09:26:05;10.10;99.90
20422;DHT22;10370;53.102;18.034;2024-02-16T09:31:27;10.20;99.90
20422;DHT22;10370;53.102;18.034;2024-02-16T09:36:51;10.30;99.90
20422;DHT22;10370;53.102;18.034;2024-02-16T09:42:14;10.30;99.90
20422;DHT22;10370;53.102;18.034;2024-02-16T09:47:39;10.40;99.90
20422;DHT22;10370;53.102;18.034;2024-02-16T09:53:05;10.50;99.90
20422;DHT22;10370;53.102;18.034;2024-02-16T09:58:29;10.50;99.90
20422;DHT22;10370;53.102;18.034;2024-02-16T10:03:52;10.60;99.90
20422;DHT22;10370;53.102;18.034;2024-02-16T10:09:30;10.70;99.90
20422;DHT22;10370;53.102;18.034;2024-02-16T10:14:55;10.80;99.90
20422;DHT22;10370;53.102;18.034;2024-02-16T10:20:19;10.90;99.90
20422;DHT22;10370;53.102;18.034;2024-02-16T10:25:42;11.00;99.90
20422;DHT22;10370;53.102;18.034;2024-02-16T10:31:07;11.10;99.90
20422;DHT22;10370;53.102;18.034;2024-02-16T10:36:34;11.20;99.90
20422;DHT22;10370;53.102;18.034;2024-02-16T10:41:58;11.20;99.90
20422;DHT22;10370;53.102;18.034;2024-02-16T10:47:22;11.40;99.90
20422;DHT22;10370;53.102;18.034;2024-02-16T10:52:47;11.50;99.90
20422;DHT22;10370;53.102;18.034;2024-02-16T10:58:13;11.60;99.90
20422;DHT22;10370;53.102;18.034;2024-02-16T11:03:38;11.60;99.90
20422;DHT22;10370;53.102;18.034;2024-02-16T11:09:02;11.60;99.90
20422;DHT22;10370;53.102;18.034;2024-02-16T11:14:47;11.80;99.90
20422;DHT22;10370;53.102;18.034;2024-02-16T11:20:15;12.00;99.90
20422;DHT22;10370;53.102;18.034;2024-02-16T11:25:38;12.10;99.90
20422;DHT22;10370;53.102;18.034;2024-02-16T11:31:02;12.20;99.90
20422;DHT22;10370;53.102;18.034;2024-02-16T11:36:28;12.20;99.90
20422;DHT22;10370;53.102;18.034;2024-02-16T11:42:03;12.40;99.90
20422;DHT22;10370;53.102;18.034;2024-02-16T11:47:26;12.40;99.90
20422;DHT22;10370;53.102;18.034;2024-02-16T11:52:52;12.40;99.90
20422;DHT22;10370;53.102;18.034;2024-02-16T11:58:16;12.60;99.90
20422;DHT22;10370;53.102;18.034;2024-02-16T12:03:41;12.60;99.90
20422;DHT22;10370;53.102;18.034;2024-02-16T12:09:07;12.70;99.90
20422;DHT22;10370;53.102;18.034;2024-02-16T12:14:31;12.70;99.90
20422;DHT22;10370;53.102;18.034;2024-02-16T12:20:14;12.80;99.90
20422;DHT22;10370;53.102;18.034;2024-02-16T12:25:38;12.90;99.90
20422;DHT22;10370;53.102;18.034;2024-02-16T12:31:01;13.00;99.90
20422;DHT22;10370;53.102;18.034;2024-02-16T12:36:28;13.10;99.90
20422;DHT22;10370;53.102;18.034;2024-02-16T12:41:50;13.10;99.90
20422;DHT22;10370;53.102;18.034;2024-02-16T12:47:13;13.20;99.90
20422;DHT22;10370;53.102;18.034;2024-02-16T12:52:39;13.20;99.90
20422;DHT22;10370;53.102;18.034;2024-02-16T12:58:07;13.20;99.90
20422;DHT22;10370;53.102;18.034;2024-02-16T13:03:33;13.20;99.90
20422;DHT22;10370;53.102;18.034;2024-02-16T13:08:56;13.20;99.90
20422;DHT22;10370;53.102;18.034;2024-02-16T13:14:19;13.20;99.90
20422;DHT22;10370;53.102;18.034;2024-02-16T13:19:42;13.20;99.90
20422;DHT22;10370;53.102;18.034;2024-02-16T13:25:05;13.20;99.90
20422;DHT22;10370;53.102;18.034;2024-02-16T13:30:29;13.20;99.90
20422;DHT22;10370;53.102;18.034;2024-02-16T13:35:52;13.40;99.90
20422;DHT22;10370;53.102;18.034;2024-02-16T13:41:20;13.40;99.90
20422;DHT22;10370;53.102;18.034;2024-02-16T13:46:45;13.20;99.90
20422;DHT22;10370;53.102;18.034;2024-02-16T13:52:10;13.00;99.90
20422;DHT22;10370;53.102;18.034;2024-02-16T13:57:33;12.90;99.90
20422;DHT22;10370;53.102;18.034;2024-02-16T14:02:56;12.80;99.90
20422;DHT22;10370;53.102;18.034;2024-02-16T14:08:19;12.80;99.90
20422;DHT22;10370;53.102;18.034;2024-02-16T14:13:42;12.70;99.90
20422;DHT22;10370;53.102;18.034;2024-02-16T14:19:05;12.60;99.90
20422;DHT22;10370;53.102;18.034;2024-02-16T14:24:28;12.50;99.90
20422;DHT22;10370;53.102;18.034;2024-02-16T14:29:50;12.40;99.90
20422;DHT22;10370;53.102;18.034;2024-02-16T14:35:13;12.40;99.90
20422;DHT22;10370;53.102;18.034;2024-02-16T14:40:36;12.50;99.90
20422;DHT22;10370;53.102;18.034;2024-02-16T14:45:59;12.60;99.90
20422;DHT22;10370;53.102;18.034;2024-02-16T14:51:22;12.60;99.90
20422;DHT22;10370;53.102;18.034;2024-02-16T14:56:54;12.60;99.90
20422;DHT22;10370;53.102;18.034;2024-02-16T15:02:23;12.50;99.90
20422;DHT22;10370;53.102;18.034;2024-02-16T15:07:49;12.30;99.90
20422;DHT22;10370;53.102;18.034;2024-02-16T15:13:12;12.30;99.90
20422;DHT22;10370;53.102;18.034;2024-02-16T15:18:38;12.20;99.90
20422;DHT22;10370;53.102;18.034;2024-02-16T15:24:07;12.10;99.90
20422;DHT22;10370;53.102;18.034;2024-02-16T15:29:33;12.00;99.90
20422;DHT22;10370;53.102;18.034;2024-02-16T15:34:56;11.90;99.90
20422;DHT22;10370;53.102;18.034;2024-02-16T15:40:19;11.80;99.90
20422;DHT22;10370;53.102;18.034;2024-02-16T15:45:44;11.80;99.90
20422;DHT22;10370;53.102;18.034;2024-02-16T15:51:08;11.70;99.90
20422;DHT22;10370;53.102;18.034;2024-02-16T15:56:33;11.70;99.90
20422;DHT22;10370;53.102;18.034;2024-02-16T16:01:58;11.70;99.90
20422;DHT22;10370;53.102;18.034;2024-02-16T16:07:22;11.70;99.90
20422;DHT22;10370;53.102;18.034;2024-02-16T16:12:55;11.60;99.90
20422;DHT22;10370;53.102;18.034;2024-02-16T16:18:19;11.60;99.90
20422;DHT22;10370;53.102;18.034;2024-02-16T16:23:44;11.50;99.90
20422;DHT22;10370;53.102;18.034;2024-02-16T16:29:06;11.50;99.90
20422;DHT22;10370;53.102;18.034;2024-02-16T16:34:29;11.40;99.90
20422;DHT22;10370;53.102;18.034;2024-02-16T16:39:58;11.50;99.90
20422;DHT22;10370;53.102;18.034;2024-02-16T16:45:21;11.40;99.90
20422;DHT22;10370;53.102;18.034;2024-02-16T16:50:44;11.40;99.90
20422;DHT22;10370;53.102;18.034;2024-02-16T16:56:12;11.30;99.90
20422;DHT22;10370;53.102;18.034;2024-02-16T17:01:35;11.30;99.90
20422;DHT22;10370;53.102;18.034;2024-02-16T17:07:00;11.20;99.90
20422;DHT22;10370;53.102;18.034;2024-02-16T17:12:23;11.20;99.90
20422;DHT22;10370;53.102;18.034;2024-02-16T17:17:47;11.20;99.90
20422;DHT22;10370;53.102;18.034;2024-02-16T17:23:14;11.10;99.90
20422;DHT22;10370;53.102;18.034;2024-02-16T17:28:38;11.10;99.90
20422;DHT22;10370;53.102;18.034;2024-02-16T17:34:01;11.10;99.90
20422;DHT22;10370;53.102;18.034;2024-02-16T17:39:30;11.20;99.90
20422;DHT22;10370;53.102;18.034;2024-02-16T17:44:53;11.20;99.90
20422;DHT22;10370;53.102;18.034;2024-02-16T17:50:17;11.30;99.90
20422;DHT22;10370;53.102;18.034;2024-02-16T17:55:40;11.40;99.90
20422;DHT22;10370;53.102;18.034;2024-02-16T18:01:04;11.30;99.90
20422;DHT22;10370;53.102;18.034;2024-02-16T18:06:36;11.40;99.90
20422;DHT22;10370;53.102;18.034;2024-02-16T18:12:04;11.30;99.90
20422;DHT22;10370;53.102;18.034;2024-02-16T18:17:28;11.30;99.90
20422;DHT22;10370;53.102;18.034;2024-02-16T18:22:52;11.30;99.90
20422;DHT22;10370;53.102;18.034;2024-02-16T18:28:17;11.30;99.90
20422;DHT22;10370;53.102;18.034;2024-02-16T18:33:46;11.20;99.90
20422;DHT22;10370;53.102;18.034;2024-02-16T18:39:12;11.20;99.90
20422;DHT22;10370;53.102;18.034;2024-02-16T18:44:37;11.20;99.90
20422;DHT22;10370;53.102;18.034;2024-02-16T18:50:04;11.20;99.90
20422;DHT22;10370;53.102;18.034;2024-02-16T18:55:27;11.20;99.90
20422;DHT22;10370;53.102;18.034;2024-02-16T19:00:50;11.20;99.90
20422;DHT22;10370;53.102;18.034;2024-02-16T19:06:13;11.20;99.90
20422;DHT22;10370;53.102;18.034;2024-02-16T19:11:39;11.20;99.90
20422;DHT22;10370;53.102;18.034;2024-02-16T19:17:11;11.10;99.90
20422;DHT22;10370;53.102;18.034;2024-02-16T19:22:37;11.10;99.90
20422;DHT22;10370;53.102;18.034;2024-02-16T19:27:59;11.10;99.90
20422;DHT22;10370;53.102;18.034;2024-02-16T19:33:22;11.00;99.90
20422;DHT22;10370;53.102;18.034;2024-02-16T19:38:45;11.00;99.90
20422;DHT22;10370;53.102;18.034;2024-02-16T19:44:08;11.00;99.90
20422;DHT22;10370;53.102;18.034;2024-02-16T19:49:31;10.90;99.90
20422;DHT22;10370;53.102;18.034;2024-02-16T19:54:54;10.80;99.90
20422;DHT22;10370;53.102;18.034;2024-02-16T20:00:20;10.80;99.90
20422;DHT22;10370;53.102;18.034;2024-02-16T20:05:52;10.70;99.90
20422;DHT22;10370;53.102;18.034;2024-02-16T20:11:15;10.70;99.90
20422;DHT22;10370;53.102;18.034;2024-02-16T20:16:39;10.60;99.90
20422;DHT22;10370;53.102;18.034;2024-02-16T20:22:02;10.60;99.90
20422;DHT22;10370;53.102;18.034;2024-02-16T20:27:25;10.80;99.90
20422;DHT22;10370;53.102;18.034;2024-02-16T20:32:48;11.00;99.90
20422;DHT22;10370;53.102;18.034;2024-02-16T20:38:19;11.10;99.90
20422;DHT22;10370;53.102;18.034;2024-02-16T20:43:43;11.10;99.90
20422;DHT22;10370;53.102;18.034;2024-02-16T20:49:05;11.10;99.90
20422;DHT22;10370;53.102;18.034;2024-02-16T20:54:29;11.20;99.90
20422;DHT22;10370;53.102;18.034;2024-02-16T20:59:54;11.20;99.90
20422;DHT22;10370;53.102;18.034;2024-02-16T21:05:20;11.10;99.90
20422;DHT22;10370;53.102;18.034;2024-02-16T21:10:48;11.10;99.90
20422;DHT22;10370;53.102;18.034;2024-02-16T21:16:11;11.10;99.90
20422;DHT22;10370;53.102;18.034;2024-02-16T21:21:34;11.10;99.90
20422;DHT22;10370;53.102;18.034;2024-02-16T21:26:57;11.00;99.90
20422;DHT22;10370;53.102;18.034;2024-02-16T21:32:23;10.90;99.90
20422;DHT22;10370;53.102;18.034;2024-02-16T21:37:46;10.90;99.90
20422;DHT22;10370;53.102;18.034;2024-02-16T21:43:08;10.90;99.90
20422;DHT22;10370;53.102;18.034;2024-02-16T21:48:32;10.90;99.90
20422;DHT22;10370;53.102;18.034;2024-02-16T21:54:01;10.80;99.90
20422;DHT22;10370;53.102;18.034;2024-02-16T21:59:24;10.80;99.90
20422;DHT22;10370;53.102;18.034;2024-02-16T22:04:48;10.80;99.90
20422;DHT22;10370;53.102;18.034;2024-02-16T22:10:17;10.80;99.90
20422;DHT22;10370;53.102;18.034;2024-02-16T22:15:40;10.80;99.90
20422;DHT22;10370;53.102;18.034;2024-02-16T22:21:17;10.70;99.90
20422;DHT22;10370;53.102;18.034;2024-02-16T22:26:43;10.70;99.90
20422;DHT22;10370;53.102;18.034;2024-02-16T22:32:05;10.70;99.90
20422;DHT22;10370;53.102;18.034;2024-02-16T22:37:32;10.70;99.90
20422;DHT22;10370;53.102;18.034;2024-02-16T22:43:01;10.60;99.90
20422;DHT22;10370;53.102;18.034;2024-02-16T22:48:31;10.60;99.90
20422;DHT22;10370;53.102;18.034;2024-02-16T22:53:58;10.60;99.90
20422;DHT22;10370;53.102;18.034;2024-02-16T22:59:21;10.50;99.90
20422;DHT22;10370;53.102;18.034;2024-02-16T23:04:44;10.50;99.90
20422;DHT22;10370;53.102;18.034;2024-02-16T23:10:12;10.50;99.90
20422;DHT22;10370;53.102;18.034;2024-02-16T23:15:36;10.50;99.90
20422;DHT22;10370;53.102;18.034;2024-02-16T23:20:59;10.50;99.90
20422;DHT22;10370;53.102;18.034;2024-02-16T23:26:24;10.40;99.90
20422;DHT22;10370;53.102;18.034;2024-02-16T23:31:49;10.40;99.90
20422;DHT22;10370;53.102;18.034;2024-02-16T23:37:15;10.40;99.90
20422;DHT22;10370;53.102;18.034;2024-02-16T23:42:38;10.40;99.90
20422;DHT22;10370;53.102;18.034;2024-02-16T23:48:12;10.40;99.90
20422;DHT22;10370;53.102;18.034;2024-02-16T23:53:38;10.40;99.90
20422;DHT22;10370;53.102;18.034;2024-02-16T23:59:04;10.40;99.90
